sensor_id;sensor_type;location;lat;lon;timestamp;P1;durP1;ratioP1;P2;durP2;ratioP2
71937;SDS011;59810;48.800;9.086;2022-12-18T00:01:58;48.37;;;17.70;;
71937;SDS011;59810;48.800;9.086;2022-12-18T00:04:24;54.03;;;18.53;;
71937;SDS011;59810;48.800;9.086;2022-12-18T00:06:51;49.35;;;18.27;;
71937;SDS011;59810;48.800;9.086;2022-12-18T00:09:17;50.72;;;17.10;;
71937;SDS011;59810;48.800;9.086;2022-12-18T00:11:43;49.83;;;16.55;;
71937;SDS011;59810;48.800;9.086;2022-12-18T00:14:09;45.90;;;16.83;;
71937;SDS011;59810;48.800;9.086;2022-12-18T00:16:37;42.03;;;14.77;;
71937;SDS011;59810;48.800;9.086;2022-12-18T00:19:02;48.13;;;14.93;;
71937;SDS011;59810;48.800;9.086;2022-12-18T00:21:29;45.55;;;15.77;;
71937;SDS011;59810;48.800;9.086;2022-12-18T00:23:55;41.40;;;15.87;;
71937;SDS011;59810;48.800;9.086;2022-12-18T00:26:24;38.15;;;13.63;;
71937;SDS011;59810;48.800;9.086;2022-12-18T00:28:54;43.00;;;14.85;;
71937;SDS011;59810;48.800;9.086;2022-12-18T00:31:25;39.90;;;13.93;;
71937;SDS011;59810;48.800;9.086;2022-12-18T00:33:53;44.13;;;15.23;;
71937;SDS011;59810;48.800;9.086;2022-12-18T00:36:23;42.80;;;14.60;;
71937;SDS011;59810;48.800;9.086;2022-12-18T00:38:50;47.53;;;14.80;;
71937;SDS011;59810;48.800;9.086;2022-12-18T00:41:17;47.73;;;16.13;;
71937;SDS011;59810;48.800;9.086;2022-12-18T00:44:02;47.30;;;14.80;;
71937;SDS011;59810;48.800;9.086;2022-12-18T00:46:28;44.90;;;15.38;;
71937;SDS011;59810;48.800;9.086;2022-12-18T00:48:53;47.87;;;17.00;;
71937;SDS011;59810;48.800;9.086;2022-12-18T00:51:19;45.30;;;15.93;;
71937;SDS011;59810;48.800;9.086;2022-12-18T00:53:44;40.20;;;14.00;;
71937;SDS011;59810;48.800;9.086;2022-12-18T00:56:12;39.78;;;14.68;;
71937;SDS011;59810;48.800;9.086;2022-12-18T00:58:40;43.97;;;13.05;;
71937;SDS011;59810;48.800;9.086;2022-12-18T01:01:05;37.90;;;13.30;;
71937;SDS011;59810;48.800;9.086;2022-12-18T01:03:31;37.03;;;12.30;;
71937;SDS011;59810;48.800;9.086;2022-12-18T01:05:56;32.75;;;13.25;;
71937;SDS011;59810;48.800;9.086;2022-12-18T01:08:24;40.78;;;12.75;;
71937;SDS011;59810;48.800;9.086;2022-12-18T01:10:50;43.67;;;13.17;;
71937;SDS011;59810;48.800;9.086;2022-12-18T01:13:15;39.22;;;12.52;;
71937;SDS011;59810;48.800;9.086;2022-12-18T01:15:47;35.50;;;12.33;;
71937;SDS011;59810;48.800;9.086;2022-12-18T01:18:14;38.88;;;12.48;;
71937;SDS011;59810;48.800;9.086;2022-12-18T01:20:39;35.17;;;12.93;;
71937;SDS011;59810;48.800;9.086;2022-12-18T01:23:04;34.30;;;12.07;;
71937;SDS011;59810;48.800;9.086;2022-12-18T01:25:30;36.63;;;11.93;;
71937;SDS011;59810;48.800;9.086;2022-12-18T01:27:55;37.63;;;12.83;;
71937;SDS011;59810;48.800;9.086;2022-12-18T01:30:20;35.77;;;12.80;;
71937;SDS011;59810;48.800;9.086;2022-12-18T01:32:46;39.40;;;12.40;;
71937;SDS011;59810;48.800;9.086;2022-12-18T01:35:11;38.67;;;12.73;;
71937;SDS011;59810;48.800;9.086;2022-12-18T01:37:36;39.33;;;13.13;;
71937;SDS011;59810;48.800;9.086;2022-12-18T01:40:02;34.17;;;13.13;;
71937;SDS011;59810;48.800;9.086;2022-12-18T01:42:27;39.55;;;13.75;;
71937;SDS011;59810;48.800;9.086;2022-12-18T01:50:23;42.38;;;14.23;;
71937;SDS011;59810;48.800;9.086;2022-12-18T01:53:10;41.72;;;14.90;;
71937;SDS011;59810;48.800;9.086;2022-12-18T01:55:57;42.78;;;14.68;;
71937;SDS011;59810;48.800;9.086;2022-12-18T01:58:27;41.47;;;14.35;;
71937;SDS011;59810;48.800;9.086;2022-12-18T02:00:57;42.70;;;14.73;;
71937;SDS011;59810;48.800;9.086;2022-12-18T02:03:22;40.83;;;14.05;;
71937;SDS011;59810;48.800;9.086;2022-12-18T02:05:54;42.20;;;14.27;;
71937;SDS011;59810;48.800;9.086;2022-12-18T02:08:52;40.88;;;13.32;;
71937;SDS011;59810;48.800;9.086;2022-12-18T02:16:46;43.28;;;13.88;;
71937;SDS011;59810;48.800;9.086;2022-12-18T02:19:27;39.42;;;13.63;;
71937;SDS011;59810;48.800;9.086;2022-12-18T02:24:50;37.35;;;12.43;;
71937;SDS011;59810;48.800;9.086;2022-12-18T02:27:30;35.97;;;13.35;;
71937;SDS011;59810;48.800;9.086;2022-12-18T02:29:59;32.22;;;11.77;;
71937;SDS011;59810;48.800;9.086;2022-12-18T02:32:31;39.47;;;13.43;;
71937;SDS011;59810;48.800;9.086;2022-12-18T02:35:03;40.75;;;14.10;;
71937;SDS011;59810;48.800;9.086;2022-12-18T02:37:31;47.70;;;15.45;;
71937;SDS011;59810;48.800;9.086;2022-12-18T02:39:58;40.38;;;15.52;;
71937;SDS011;59810;48.800;9.086;2022-12-18T02:42:25;47.33;;;15.43;;
71937;SDS011;59810;48.800;9.086;2022-12-18T02:44:55;46.22;;;16.60;;
71937;SDS011;59810;48.800;9.086;2022-12-18T02:47:30;42.63;;;13.88;;
71937;SDS011;59810;48.800;9.086;2022-12-18T02:50:05;43.88;;;16.60;;
71937;SDS011;59810;48.800;9.086;2022-12-18T03:01:30;38.63;;;13.48;;
71937;SDS011;59810;48.800;9.086;2022-12-18T03:04:08;35.10;;;12.07;;
71937;SDS011;59810;48.800;9.086;2022-12-18T03:06:36;40.15;;;12.77;;
71937;SDS011;59810;48.800;9.086;2022-12-18T03:09:12;34.38;;;11.00;;
71937;SDS011;59810;48.800;9.086;2022-12-18T03:11:44;33.90;;;11.55;;
71937;SDS011;59810;48.800;9.086;2022-12-18T03:14:49;36.75;;;12.50;;
71937;SDS011;59810;48.800;9.086;2022-12-18T03:17:20;31.60;;;9.95;;
71937;SDS011;59810;48.800;9.086;2022-12-18T03:19:50;36.47;;;11.77;;
71937;SDS011;59810;48.800;9.086;2022-12-18T03:22:18;34.92;;;10.88;;
71937;SDS011;59810;48.800;9.086;2022-12-18T03:24:46;38.20;;;12.20;;
71937;SDS011;59810;48.800;9.086;2022-12-18T03:27:14;36.03;;;11.95;;
71937;SDS011;59810;48.800;9.086;2022-12-18T03:30:04;39.50;;;12.23;;
71937;SDS011;59810;48.800;9.086;2022-12-18T03:32:34;39.22;;;12.93;;
71937;SDS011;59810;48.800;9.086;2022-12-18T03:35:05;37.30;;;12.23;;
71937;SDS011;59810;48.800;9.086;2022-12-18T03:37:33;31.35;;;11.45;;
71937;SDS011;59810;48.800;9.086;2022-12-18T03:40:02;32.97;;;10.60;;
71937;SDS011;59810;48.800;9.086;2022-12-18T03:42:32;34.15;;;10.55;;
71937;SDS011;59810;48.800;9.086;2022-12-18T03:47:59;32.30;;;10.52;;
71937;SDS011;59810;48.800;9.086;2022-12-18T03:50:39;29.30;;;9.75;;
71937;SDS011;59810;48.800;9.086;2022-12-18T03:55:48;32.13;;;11.25;;
71937;SDS011;59810;48.800;9.086;2022-12-18T03:58:17;28.38;;;8.75;;
71937;SDS011;59810;48.800;9.086;2022-12-18T04:00:45;36.25;;;11.02;;
71937;SDS011;59810;48.800;9.086;2022-12-18T04:03:14;27.42;;;9.52;;
71937;SDS011;59810;48.800;9.086;2022-12-18T04:05:43;29.30;;;10.48;;
71937;SDS011;59810;48.800;9.086;2022-12-18T04:08:09;30.48;;;10.05;;
71937;SDS011;59810;48.800;9.086;2022-12-18T04:10:37;29.90;;;9.97;;
71937;SDS011;59810;48.800;9.086;2022-12-18T04:13:04;31.77;;;12.30;;
71937;SDS011;59810;48.800;9.086;2022-12-18T04:15:35;32.13;;;11.23;;
71937;SDS011;59810;48.800;9.086;2022-12-18T04:18:02;26.10;;;9.87;;
71937;SDS011;59810;48.800;9.086;2022-12-18T04:20:27;29.25;;;9.93;;
71937;SDS011;59810;48.800;9.086;2022-12-18T04:22:53;27.40;;;9.37;;
71937;SDS011;59810;48.800;9.086;2022-12-18T04:25:18;30.17;;;10.33;;
71937;SDS011;59810;48.800;9.086;2022-12-18T04:27:46;31.20;;;11.38;;
71937;SDS011;59810;48.800;9.086;2022-12-18T04:30:11;26.17;;;8.70;;
71937;SDS011;59810;48.800;9.086;2022-12-18T04:32:37;25.10;;;8.83;;
71937;SDS011;59810;48.800;9.086;2022-12-18T04:35:02;24.50;;;8.67;;
71937;SDS011;59810;48.800;9.086;2022-12-18T04:37:29;28.95;;;9.32;;
71937;SDS011;59810;48.800;9.086;2022-12-18T04:39:57;31.00;;;10.35;;
71937;SDS011;59810;48.800;9.086;2022-12-18T04:42:22;28.67;;;9.80;;
71937;SDS011;59810;48.800;9.086;2022-12-18T04:44:47;26.23;;;8.70;;
71937;SDS011;59810;48.800;9.086;2022-12-18T04:47:13;27.70;;;9.23;;
71937;SDS011;59810;48.800;9.086;2022-12-18T04:49:38;26.23;;;9.63;;
71937;SDS011;59810;48.800;9.086;2022-12-18T04:52:03;27.95;;;9.35;;
71937;SDS011;59810;48.800;9.086;2022-12-18T04:54:32;24.10;;;8.33;;
71937;SDS011;59810;48.800;9.086;2022-12-18T04:56:57;35.38;;;10.10;;
71937;SDS011;59810;48.800;9.086;2022-12-18T04:59:22;32.78;;;11.50;;
71937;SDS011;59810;48.800;9.086;2022-12-18T05:01:52;31.70;;;10.37;;
71937;SDS011;59810;48.800;9.086;2022-12-18T05:04:18;31.33;;;9.63;;
71937;SDS011;59810;48.800;9.086;2022-12-18T05:06:43;32.33;;;9.13;;
71937;SDS011;59810;48.800;9.086;2022-12-18T05:09:09;31.40;;;11.32;;
71937;SDS011;59810;48.800;9.086;2022-12-18T05:11:37;30.53;;;10.50;;
71937;SDS011;59810;48.800;9.086;2022-12-18T05:14:02;25.77;;;8.77;;
71937;SDS011;59810;48.800;9.086;2022-12-18T05:16:28;27.17;;;9.57;;
71937;SDS011;59810;48.800;9.086;2022-12-18T05:18:53;26.70;;;9.33;;
71937;SDS011;59810;48.800;9.086;2022-12-18T05:21:18;26.53;;;9.33;;
71937;SDS011;59810;48.800;9.086;2022-12-18T05:23:44;28.47;;;10.57;;
71937;SDS011;59810;48.800;9.086;2022-12-18T05:26:09;30.07;;;9.70;;
71937;SDS011;59810;48.800;9.086;2022-12-18T05:28:40;28.63;;;9.50;;
71937;SDS011;59810;48.800;9.086;2022-12-18T05:31:05;33.40;;;10.93;;
71937;SDS011;59810;48.800;9.086;2022-12-18T05:33:32;29.23;;;9.73;;
71937;SDS011;59810;48.800;9.086;2022-12-18T05:36:03;24.70;;;9.48;;
71937;SDS011;59810;48.800;9.086;2022-12-18T05:38:31;27.38;;;9.95;;
71937;SDS011;59810;48.800;9.086;2022-12-18T05:41:00;32.72;;;9.98;;
71937;SDS011;59810;48.800;9.086;2022-12-18T05:43:26;26.30;;;9.23;;
71937;SDS011;59810;48.800;9.086;2022-12-18T05:45:53;28.33;;;10.32;;
71937;SDS011;59810;48.800;9.086;2022-12-18T05:48:19;33.00;;;10.67;;
71937;SDS011;59810;48.800;9.086;2022-12-18T05:50:45;31.00;;;11.13;;
71937;SDS011;59810;48.800;9.086;2022-12-18T05:53:12;30.80;;;9.63;;
71937;SDS011;59810;48.800;9.086;2022-12-18T05:55:42;24.05;;;9.25;;
71937;SDS011;59810;48.800;9.086;2022-12-18T05:58:09;26.85;;;10.18;;
71937;SDS011;59810;48.800;9.086;2022-12-18T06:00:37;27.13;;;9.20;;
71937;SDS011;59810;48.800;9.086;2022-12-18T06:03:05;25.13;;;7.80;;
71937;SDS011;59810;48.800;9.086;2022-12-18T06:05:35;29.95;;;8.70;;
71937;SDS011;59810;48.800;9.086;2022-12-18T06:08:04;27.15;;;8.00;;
71937;SDS011;59810;48.800;9.086;2022-12-18T06:10:29;26.17;;;8.67;;
71937;SDS011;59810;48.800;9.086;2022-12-18T06:12:55;31.08;;;9.73;;
71937;SDS011;59810;48.800;9.086;2022-12-18T06:15:20;24.13;;;8.13;;
71937;SDS011;59810;48.800;9.086;2022-12-18T06:17:49;24.73;;;9.05;;
71937;SDS011;59810;48.800;9.086;2022-12-18T06:20:14;27.17;;;8.25;;
71937;SDS011;59810;48.800;9.086;2022-12-18T06:22:40;22.53;;;8.57;;
71937;SDS011;59810;48.800;9.086;2022-12-18T06:25:05;24.10;;;8.43;;
71937;SDS011;59810;48.800;9.086;2022-12-18T06:27:31;30.80;;;10.48;;
71937;SDS011;59810;48.800;9.086;2022-12-18T06:29:58;26.73;;;9.23;;
71937;SDS011;59810;48.800;9.086;2022-12-18T06:32:24;25.87;;;8.33;;
71937;SDS011;59810;48.800;9.086;2022-12-18T06:34:49;23.40;;;7.53;;
71937;SDS011;59810;48.800;9.086;2022-12-18T06:37:14;28.00;;;8.17;;
71937;SDS011;59810;48.800;9.086;2022-12-18T06:39:42;25.17;;;8.25;;
71937;SDS011;59810;48.800;9.086;2022-12-18T06:42:07;28.73;;;9.57;;
71937;SDS011;59810;48.800;9.086;2022-12-18T06:44:33;24.48;;;8.45;;
71937;SDS011;59810;48.800;9.086;2022-12-18T06:47:00;38.38;;;10.00;;
71937;SDS011;59810;48.800;9.086;2022-12-18T06:49:26;33.70;;;8.93;;
71937;SDS011;59810;48.800;9.086;2022-12-18T06:51:51;26.08;;;7.97;;
71937;SDS011;59810;48.800;9.086;2022-12-18T06:54:17;23.73;;;8.27;;
71937;SDS011;59810;48.800;9.086;2022-12-18T06:56:42;27.20;;;9.90;;
71937;SDS011;59810;48.800;9.086;2022-12-18T06:59:09;30.85;;;9.70;;
71937;SDS011;59810;48.800;9.086;2022-12-18T07:01:34;27.17;;;9.23;;
71937;SDS011;59810;48.800;9.086;2022-12-18T07:04:00;28.17;;;9.37;;
71937;SDS011;59810;48.800;9.086;2022-12-18T07:06:26;25.60;;;7.65;;
71937;SDS011;59810;48.800;9.086;2022-12-18T07:08:52;24.73;;;7.80;;
71937;SDS011;59810;48.800;9.086;2022-12-18T07:11:19;25.10;;;7.30;;
71937;SDS011;59810;48.800;9.086;2022-12-18T07:13:47;26.33;;;8.60;;
71937;SDS011;59810;48.800;9.086;2022-12-18T07:16:14;24.80;;;7.77;;
71937;SDS011;59810;48.800;9.086;2022-12-18T07:18:41;21.02;;;8.20;;
71937;SDS011;59810;48.800;9.086;2022-12-18T07:21:08;27.33;;;9.85;;
71937;SDS011;59810;48.800;9.086;2022-12-18T07:23:37;35.67;;;11.15;;
71937;SDS011;59810;48.800;9.086;2022-12-18T07:26:06;35.43;;;9.70;;
71937;SDS011;59810;48.800;9.086;2022-12-18T07:28:33;37.05;;;11.25;;
71937;SDS011;59810;48.800;9.086;2022-12-18T07:31:13;21.83;;;7.80;;
71937;SDS011;59810;48.800;9.086;2022-12-18T07:33:40;25.85;;;8.05;;
71937;SDS011;59810;48.800;9.086;2022-12-18T07:36:06;28.33;;;9.35;;
71937;SDS011;59810;48.800;9.086;2022-12-18T07:38:32;21.98;;;8.30;;
71937;SDS011;59810;48.800;9.086;2022-12-18T07:41:02;31.30;;;8.63;;
71937;SDS011;59810;48.800;9.086;2022-12-18T07:43:33;24.38;;;7.97;;
71937;SDS011;59810;48.800;9.086;2022-12-18T07:45:59;25.58;;;8.20;;
71937;SDS011;59810;48.800;9.086;2022-12-18T07:48:25;27.47;;;9.17;;
71937;SDS011;59810;48.800;9.086;2022-12-18T07:50:50;22.87;;;9.07;;
71937;SDS011;59810;48.800;9.086;2022-12-18T07:53:16;27.75;;;8.55;;
71937;SDS011;59810;48.800;9.086;2022-12-18T07:55:41;27.73;;;8.80;;
71937;SDS011;59810;48.800;9.086;2022-12-18T07:58:07;22.77;;;8.20;;
71937;SDS011;59810;48.800;9.086;2022-12-18T08:00:33;25.20;;;8.05;;
71937;SDS011;59810;48.800;9.086;2022-12-18T08:02:59;25.73;;;8.98;;
71937;SDS011;59810;48.800;9.086;2022-12-18T08:05:24;29.93;;;10.57;;
71937;SDS011;59810;48.800;9.086;2022-12-18T08:07:50;28.67;;;8.60;;
71937;SDS011;59810;48.800;9.086;2022-12-18T08:10:15;49.45;;;15.38;;
71937;SDS011;59810;48.800;9.086;2022-12-18T08:12:48;37.22;;;12.38;;
71937;SDS011;59810;48.800;9.086;2022-12-18T08:15:14;38.90;;;13.15;;
71937;SDS011;59810;48.800;9.086;2022-12-18T08:17:40;37.33;;;12.20;;
71937;SDS011;59810;48.800;9.086;2022-12-18T08:20:05;32.27;;;10.63;;
71937;SDS011;59810;48.800;9.086;2022-12-18T08:22:33;30.02;;;11.23;;
71937;SDS011;59810;48.800;9.086;2022-12-18T08:25:03;28.95;;;10.57;;
71937;SDS011;59810;48.800;9.086;2022-12-18T08:27:29;34.63;;;13.20;;
71937;SDS011;59810;48.800;9.086;2022-12-18T08:29:54;31.30;;;11.87;;
71937;SDS011;59810;48.800;9.086;2022-12-18T08:32:20;34.73;;;10.87;;
71937;SDS011;59810;48.800;9.086;2022-12-18T08:34:45;28.80;;;9.23;;
71937;SDS011;59810;48.800;9.086;2022-12-18T08:37:11;30.55;;;9.60;;
71937;SDS011;59810;48.800;9.086;2022-12-18T08:39:36;36.77;;;10.73;;
71937;SDS011;59810;48.800;9.086;2022-12-18T08:42:02;29.87;;;11.97;;
71937;SDS011;59810;48.800;9.086;2022-12-18T08:44:45;33.88;;;10.35;;
71937;SDS011;59810;48.800;9.086;2022-12-18T08:47:11;30.83;;;11.30;;
71937;SDS011;59810;48.800;9.086;2022-12-18T08:49:36;31.77;;;11.20;;
71937;SDS011;59810;48.800;9.086;2022-12-18T08:52:01;29.90;;;10.50;;
71937;SDS011;59810;48.800;9.086;2022-12-18T08:54:28;27.67;;;9.48;;
71937;SDS011;59810;48.800;9.086;2022-12-18T08:56:53;37.33;;;11.60;;
71937;SDS011;59810;48.800;9.086;2022-12-18T08:59:19;31.23;;;10.97;;
71937;SDS011;59810;48.800;9.086;2022-12-18T09:01:44;32.20;;;10.97;;
71937;SDS011;59810;48.800;9.086;2022-12-18T09:04:13;28.38;;;10.20;;
71937;SDS011;59810;48.800;9.086;2022-12-18T09:06:39;32.40;;;10.83;;
71937;SDS011;59810;48.800;9.086;2022-12-18T09:09:05;32.40;;;10.50;;
71937;SDS011;59810;48.800;9.086;2022-12-18T09:11:30;31.70;;;12.13;;
71937;SDS011;59810;48.800;9.086;2022-12-18T09:13:57;36.33;;;11.57;;
71937;SDS011;59810;48.800;9.086;2022-12-18T09:16:24;38.20;;;12.57;;
71937;SDS011;59810;48.800;9.086;2022-12-18T09:18:51;25.43;;;9.63;;
71937;SDS011;59810;48.800;9.086;2022-12-18T09:21:18;37.78;;;13.88;;
71937;SDS011;59810;48.800;9.086;2022-12-18T09:23:49;41.50;;;14.50;;
71937;SDS011;59810;48.800;9.086;2022-12-18T09:26:18;37.85;;;12.85;;
71937;SDS011;59810;48.800;9.086;2022-12-18T09:28:44;38.90;;;14.00;;
71937;SDS011;59810;48.800;9.086;2022-12-18T09:31:10;35.27;;;11.73;;
71937;SDS011;59810;48.800;9.086;2022-12-18T09:33:37;41.25;;;13.80;;
71937;SDS011;59810;48.800;9.086;2022-12-18T09:36:03;34.35;;;13.38;;
71937;SDS011;59810;48.800;9.086;2022-12-18T09:38:29;31.48;;;12.05;;
71937;SDS011;59810;48.800;9.086;2022-12-18T09:41:33;34.53;;;11.90;;
71937;SDS011;59810;48.800;9.086;2022-12-18T09:43:59;34.15;;;11.40;;
71937;SDS011;59810;48.800;9.086;2022-12-18T09:46:29;33.15;;;11.82;;
71937;SDS011;59810;48.800;9.086;2022-12-18T09:48:59;25.42;;;10.48;;
71937;SDS011;59810;48.800;9.086;2022-12-18T09:54:22;36.97;;;12.02;;
71937;SDS011;59810;48.800;9.086;2022-12-18T09:56:56;31.00;;;11.55;;
71937;SDS011;59810;48.800;9.086;2022-12-18T09:59:30;35.67;;;11.45;;
71937;SDS011;59810;48.800;9.086;2022-12-18T10:04:43;30.25;;;10.98;;
71937;SDS011;59810;48.800;9.086;2022-12-18T10:07:21;33.60;;;10.95;;
71937;SDS011;59810;48.800;9.086;2022-12-18T10:10:06;34.75;;;11.57;;
71937;SDS011;59810;48.800;9.086;2022-12-18T10:15:54;32.13;;;11.53;;
71937;SDS011;59810;48.800;9.086;2022-12-18T10:21:35;33.13;;;10.18;;
71937;SDS011;59810;48.800;9.086;2022-12-18T10:24:26;31.83;;;11.13;;
71937;SDS011;59810;48.800;9.086;2022-12-18T10:26:59;33.20;;;11.07;;
71937;SDS011;59810;48.800;9.086;2022-12-18T10:29:39;37.67;;;11.83;;
71937;SDS011;59810;48.800;9.086;2022-12-18T10:32:06;33.58;;;10.52;;
71937;SDS011;59810;48.800;9.086;2022-12-18T10:34:33;37.78;;;11.73;;
71937;SDS011;59810;48.800;9.086;2022-12-18T10:37:00;36.07;;;11.47;;
71937;SDS011;59810;48.800;9.086;2022-12-18T10:39:26;29.25;;;10.82;;
71937;SDS011;59810;48.800;9.086;2022-12-18T10:41:52;31.93;;;10.83;;
71937;SDS011;59810;48.800;9.086;2022-12-18T10:44:35;36.28;;;10.13;;
71937;SDS011;59810;48.800;9.086;2022-12-18T10:47:04;35.60;;;11.07;;
71937;SDS011;59810;48.800;9.086;2022-12-18T10:49:47;30.33;;;9.80;;
71937;SDS011;59810;48.800;9.086;2022-12-18T10:52:16;29.38;;;9.32;;
71937;SDS011;59810;48.800;9.086;2022-12-18T10:54:50;30.80;;;10.67;;
71937;SDS011;59810;48.800;9.086;2022-12-18T10:59:54;33.63;;;10.48;;
71937;SDS011;59810;48.800;9.086;2022-12-18T11:02:26;28.98;;;10.48;;
71937;SDS011;59810;48.800;9.086;2022-12-18T11:04:53;29.98;;;9.98;;
71937;SDS011;59810;48.800;9.086;2022-12-18T11:07:23;29.43;;;9.93;;
71937;SDS011;59810;48.800;9.086;2022-12-18T11:09:59;28.27;;;10.07;;
71937;SDS011;59810;48.800;9.086;2022-12-18T11:12:27;31.25;;;9.50;;
71937;SDS011;59810;48.800;9.086;2022-12-18T11:14:54;31.08;;;10.30;;
71937;SDS011;59810;48.800;9.086;2022-12-18T11:19:56;28.10;;;9.97;;
71937;SDS011;59810;48.800;9.086;2022-12-18T11:22:25;30.67;;;9.75;;
71937;SDS011;59810;48.800;9.086;2022-12-18T11:27:30;33.50;;;11.32;;
71937;SDS011;59810;48.800;9.086;2022-12-18T11:30:08;32.08;;;10.65;;
71937;SDS011;59810;48.800;9.086;2022-12-18T11:32:41;33.70;;;10.47;;
71937;SDS011;59810;48.800;9.086;2022-12-18T11:35:19;27.48;;;10.25;;
71937;SDS011;59810;48.800;9.086;2022-12-18T11:38:02;29.15;;;9.93;;
71937;SDS011;59810;48.800;9.086;2022-12-18T11:40:36;29.25;;;10.88;;
71937;SDS011;59810;48.800;9.086;2022-12-18T11:46:05;29.40;;;9.90;;
71937;SDS011;59810;48.800;9.086;2022-12-18T11:48:41;32.83;;;11.07;;
71937;SDS011;59810;48.800;9.086;2022-12-18T11:51:16;30.17;;;10.05;;
71937;SDS011;59810;48.800;9.086;2022-12-18T11:53:48;32.28;;;9.98;;
71937;SDS011;59810;48.800;9.086;2022-12-18T11:56:29;29.57;;;10.37;;
71937;SDS011;59810;48.800;9.086;2022-12-18T12:01:51;32.42;;;11.23;;
71937;SDS011;59810;48.800;9.086;2022-12-18T12:15:58;33.65;;;12.07;;
71937;SDS011;59810;48.800;9.086;2022-12-18T12:26:49;30.85;;;11.32;;
71937;SDS011;59810;48.800;9.086;2022-12-18T12:35:12;35.42;;;12.68;;
71937;SDS011;59810;48.800;9.086;2022-12-18T12:40:34;33.88;;;12.63;;
71937;SDS011;59810;48.800;9.086;2022-12-18T12:43:31;34.42;;;12.35;;
71937;SDS011;59810;48.800;9.086;2022-12-18T12:46:11;34.27;;;12.97;;
71937;SDS011;59810;48.800;9.086;2022-12-18T12:51:12;39.50;;;13.27;;
71937;SDS011;59810;48.800;9.086;2022-12-18T12:53:42;38.50;;;13.55;;
71937;SDS011;59810;48.800;9.086;2022-12-18T12:56:09;30.42;;;12.57;;
71937;SDS011;59810;48.800;9.086;2022-12-18T12:58:55;36.22;;;12.50;;
71937;SDS011;59810;48.800;9.086;2022-12-18T13:01:46;34.03;;;11.93;;
71937;SDS011;59810;48.800;9.086;2022-12-18T13:07:05;36.75;;;12.63;;
71937;SDS011;59810;48.800;9.086;2022-12-18T13:09:32;32.05;;;12.00;;
71937;SDS011;59810;48.800;9.086;2022-12-18T13:12:17;31.70;;;11.30;;
71937;SDS011;59810;48.800;9.086;2022-12-18T13:15:37;31.73;;;12.73;;
71937;SDS011;59810;48.800;9.086;2022-12-18T13:20:34;36.08;;;13.20;;
71937;SDS011;59810;48.800;9.086;2022-12-18T13:23:00;34.30;;;12.57;;
71937;SDS011;59810;48.800;9.086;2022-12-18T13:25:29;32.40;;;12.07;;
71937;SDS011;59810;48.800;9.086;2022-12-18T13:28:03;34.15;;;12.20;;
71937;SDS011;59810;48.800;9.086;2022-12-18T13:35:41;32.53;;;12.00;;
71937;SDS011;59810;48.800;9.086;2022-12-18T13:40:56;41.58;;;13.68;;
71937;SDS011;59810;48.800;9.086;2022-12-18T13:43:27;36.63;;;12.80;;
71937;SDS011;59810;48.800;9.086;2022-12-18T13:48:29;37.78;;;13.02;;
71937;SDS011;59810;48.800;9.086;2022-12-18T13:51:07;37.37;;;12.93;;
71937;SDS011;59810;48.800;9.086;2022-12-18T13:53:42;35.53;;;12.45;;
71937;SDS011;59810;48.800;9.086;2022-12-18T13:56:15;29.23;;;11.27;;
71937;SDS011;59810;48.800;9.086;2022-12-18T13:58:41;32.65;;;12.38;;
71937;SDS011;59810;48.800;9.086;2022-12-18T14:01:21;32.03;;;12.67;;
71937;SDS011;59810;48.800;9.086;2022-12-18T14:03:47;35.10;;;11.65;;
71937;SDS011;59810;48.800;9.086;2022-12-18T14:06:15;30.13;;;10.88;;
71937;SDS011;59810;48.800;9.086;2022-12-18T14:08:41;35.23;;;11.03;;
71937;SDS011;59810;48.800;9.086;2022-12-18T14:11:19;32.67;;;11.52;;
71937;SDS011;59810;48.800;9.086;2022-12-18T14:13:49;33.00;;;11.40;;
71937;SDS011;59810;48.800;9.086;2022-12-18T14:16:15;32.43;;;11.20;;
71937;SDS011;59810;48.800;9.086;2022-12-18T14:18:45;28.65;;;10.02;;
71937;SDS011;59810;48.800;9.086;2022-12-18T14:21:24;36.00;;;11.45;;
71937;SDS011;59810;48.800;9.086;2022-12-18T14:24:06;32.85;;;11.23;;
71937;SDS011;59810;48.800;9.086;2022-12-18T14:26:41;34.28;;;12.55;;
71937;SDS011;59810;48.800;9.086;2022-12-18T14:31:45;39.10;;;12.35;;
71937;SDS011;59810;48.800;9.086;2022-12-18T14:34:16;34.33;;;12.43;;
71937;SDS011;59810;48.800;9.086;2022-12-18T14:36:51;39.28;;;13.15;;
71937;SDS011;59810;48.800;9.086;2022-12-18T14:39:18;36.70;;;12.30;;
71937;SDS011;59810;48.800;9.086;2022-12-18T14:41:43;34.80;;;12.50;;
71937;SDS011;59810;48.800;9.086;2022-12-18T14:44:10;33.17;;;11.80;;
71937;SDS011;59810;48.800;9.086;2022-12-18T14:46:38;35.55;;;10.75;;
71937;SDS011;59810;48.800;9.086;2022-12-18T14:49:18;31.15;;;10.60;;
71937;SDS011;59810;48.800;9.086;2022-12-18T14:51:54;37.38;;;13.07;;
71937;SDS011;59810;48.800;9.086;2022-12-18T14:54:22;31.67;;;11.63;;
71937;SDS011;59810;48.800;9.086;2022-12-18T14:56:51;34.72;;;11.32;;
71937;SDS011;59810;48.800;9.086;2022-12-18T14:59:25;33.22;;;11.25;;
71937;SDS011;59810;48.800;9.086;2022-12-18T15:04:45;32.30;;;10.90;;
71937;SDS011;59810;48.800;9.086;2022-12-18T15:07:15;32.67;;;11.63;;
71937;SDS011;59810;48.800;9.086;2022-12-18T15:10:31;44.33;;;15.00;;
71937;SDS011;59810;48.800;9.086;2022-12-18T15:18:11;34.13;;;12.68;;
71937;SDS011;59810;48.800;9.086;2022-12-18T15:20:49;50.42;;;16.92;;
71937;SDS011;59810;48.800;9.086;2022-12-18T15:25:57;38.17;;;13.65;;
71937;SDS011;59810;48.800;9.086;2022-12-18T15:28:30;38.40;;;13.90;;
71937;SDS011;59810;48.800;9.086;2022-12-18T15:34:31;37.60;;;12.07;;
71937;SDS011;59810;48.800;9.086;2022-12-18T15:36:45;39.53;;;13.60;;
71937;SDS011;59810;48.800;9.086;2022-12-18T15:39:11;35.43;;;11.23;;
71937;SDS011;59810;48.800;9.086;2022-12-18T15:41:42;36.58;;;12.77;;
71937;SDS011;59810;48.800;9.086;2022-12-18T15:44:27;36.92;;;12.90;;
71937;SDS011;59810;48.800;9.086;2022-12-18T15:46:56;45.37;;;14.13;;
71937;SDS011;59810;48.800;9.086;2022-12-18T15:49:24;37.38;;;12.68;;
71937;SDS011;59810;48.800;9.086;2022-12-18T15:51:51;44.43;;;14.17;;
71937;SDS011;59810;48.800;9.086;2022-12-18T15:54:21;40.65;;;12.98;;
71937;SDS011;59810;48.800;9.086;2022-12-18T15:57:09;39.03;;;13.88;;
71937;SDS011;59810;48.800;9.086;2022-12-18T15:59:48;38.50;;;13.05;;
71937;SDS011;59810;48.800;9.086;2022-12-18T16:02:16;43.78;;;14.40;;
71937;SDS011;59810;48.800;9.086;2022-12-18T16:04:45;41.10;;;12.90;;
71937;SDS011;59810;48.800;9.086;2022-12-18T16:07:11;42.88;;;14.43;;
71937;SDS011;59810;48.800;9.086;2022-12-18T16:09:37;39.92;;;13.88;;
71937;SDS011;59810;48.800;9.086;2022-12-18T16:12:04;41.42;;;14.55;;
71937;SDS011;59810;48.800;9.086;2022-12-18T16:14:32;43.53;;;13.65;;
71937;SDS011;59810;48.800;9.086;2022-12-18T16:17:01;39.60;;;14.03;;
71937;SDS011;59810;48.800;9.086;2022-12-18T16:19:28;36.85;;;13.23;;
71937;SDS011;59810;48.800;9.086;2022-12-18T16:21:55;40.33;;;14.67;;
71937;SDS011;59810;48.800;9.086;2022-12-18T16:24:23;40.13;;;13.50;;
71937;SDS011;59810;48.800;9.086;2022-12-18T16:26:50;46.17;;;14.38;;
71937;SDS011;59810;48.800;9.086;2022-12-18T16:29:18;55.95;;;19.60;;
71937;SDS011;59810;48.800;9.086;2022-12-18T16:31:43;41.85;;;14.82;;
71937;SDS011;59810;48.800;9.086;2022-12-18T16:34:13;39.53;;;13.20;;
71937;SDS011;59810;48.800;9.086;2022-12-18T16:36:49;34.47;;;12.70;;
71937;SDS011;59810;48.800;9.086;2022-12-18T16:39:15;37.53;;;13.50;;